Time;durP1;ratioP1;P1;durP2;ratioP2;P2;SDS_P1;SDS_P2;PMS_P1;PMS_P2;Temp;Humidity;BMP_temperature;BMP_pressure;BME280_temperature;BME280_humidity;BME280_pressure;Samples;Min_cycle;Max_cycle;Signal;HPM_P1;HPM_P2
2021/11/22 00:01:55;;;;;;;;;;;;;;;5.56;89.51;100376.03;4956419;29;19965;-68
2021/11/22 00:04:22;;;;;;;;;;;;;;;5.60;89.68;100367.75;4957028;29;19967;-68
2021/11/22 00:06:47;;;;;;;;;;;;;;;5.63;89.66;100378.16;4956967;28;20336;-68
2021/11/22 00:09:13;;;;;;;;;;;;;;;5.61;89.75;100375.50;4956180;29;19966;-69
2021/11/22 00:11:38;;;;;;;;;;;;;;;5.64;89.10;100378.22;4955389;29;20384;-70
2021/11/22 00:14:24;;;;;;;;;;;;;;;5.56;89.19;100388.84;4956387;29;20383;-72
2021/11/22 00:19:24;;;;;;;;;;;;;;;5.41;87.74;100387.22;5129953;23;19928;-70
2021/11/22 00:21:49;;;;;;;;;;;;;;;5.40;87.93;100384.56;4995573;28;19914;-71
2021/11/22 00:24:15;;;;;;;;;;;;;;;5.37;88.80;100381.81;4982804;28;19925;-71
2021/11/22 00:26:40;;;;;;;;;;;;;;;5.33;89.42;100389.34;4995288;28;20056;-70
2021/11/22 00:29:05;;;;;;;;;;;;;;;5.30;89.89;100385.72;4995347;28;19914;-70
2021/11/22 00:31:31;;;;;;;;;;;;;;;5.32;89.36;100387.56;4995463;28;19921;-71
2021/11/22 00:33:57;;;;;;;;;;;;;;;5.33;89.34;100388.44;4994973;28;19936;-71
2021/11/22 00:36:23;;;;;;;;;;;;;;;5.38;89.17;100391.28;4995435;28;20004;-71
2021/11/22 00:38:48;;;;;;;;;;;;;;;5.39;89.50;100383.66;4995300;28;19956;-71
2021/11/22 00:41:13;;;;;;;;;;;;;;;5.34;90.59;100383.41;4995574;28;19964;-70
2021/11/22 00:43:39;;;;;;;;;;;;;;;5.09;91.68;100383.69;4995019;28;19914;-70
2021/11/22 00:46:04;;;;;;;;;;;;;;;5.00;91.87;100385.72;4993943;28;19971;-68
2021/11/22 00:48:30;;;;;;;;;;;;;;;4.95;92.33;100389.72;4995161;28;20364;-69
2021/11/22 00:50:55;;;;;;;;;;;;;;;4.88;92.47;100393.56;4992719;28;20000;-69
2021/11/22 00:53:21;;;;;;;;;;;;;;;4.94;93.46;100381.13;4995100;28;19914;-69
2021/11/22 00:55:46;;;;;;;;;;;;;;;4.96;93.75;100387.22;4995118;28;19914;-68
2021/11/22 00:58:12;;;;;;;;;;;;;;;4.77;93.93;100389.50;4994873;28;19964;-69
2021/11/22 01:00:37;;;;;;;;;;;;;;;4.65;94.15;100390.53;4994669;28;19972;-69
2021/11/22 01:03:03;;;;;;;;;;;;;;;4.65;94.06;100392.22;4994933;28;20008;-70
2021/11/22 01:05:29;;;;;;;;;;;;;;;4.64;93.78;100388.78;4994317;28;20299;-69
2021/11/22 01:07:54;;;;;;;;;;;;;;;4.72;93.60;100390.91;4995132;28;19921;-70
2021/11/22 01:10:21;;;;;;;;;;;;;;;4.81;93.52;100386.31;4995164;28;19914;-71
2021/11/22 01:12:47;;;;;;;;;;;;;;;4.88;93.42;100382.47;4994382;28;20364;-70
2021/11/22 01:15:14;;;;;;;;;;;;;;;4.92;93.32;100381.84;4994486;28;19913;-70
2021/11/22 01:17:40;;;;;;;;;;;;;;;4.90;93.29;100384.31;4994667;28;19925;-69
2021/11/22 01:20:06;;;;;;;;;;;;;;;4.91;93.15;100385.19;4994091;28;20009;-69
2021/11/22 01:22:31;;;;;;;;;;;;;;;4.85;93.14;100391.72;4992457;28;20012;-69
2021/11/22 01:24:57;;;;;;;;;;;;;;;4.81;93.46;100399.09;4994646;28;20021;-68
2021/11/22 01:27:22;;;;;;;;;;;;;;;4.75;93.90;100391.97;4994240;28;20362;-70
2021/11/22 01:29:48;;;;;;;;;;;;;;;4.72;93.93;100385.78;4994445;28;19910;-67
2021/11/22 01:32:13;;;;;;;;;;;;;;;4.58;93.48;100383.28;4994101;28;19913;-69
2021/11/22 01:34:38;;;;;;;;;;;;;;;4.62;93.09;100392.03;4993772;28;19916;-71
2021/11/22 01:37:04;;;;;;;;;;;;;;;4.57;92.83;100391.75;4994326;28;19914;-71
2021/11/22 01:39:29;;;;;;;;;;;;;;;4.43;92.51;100382.38;4994106;28;19917;-68
2021/11/22 01:41:55;;;;;;;;;;;;;;;4.52;92.58;100388.94;4993979;28;19914;-69
2021/11/22 01:44:20;;;;;;;;;;;;;;;4.57;92.25;100390.88;4993129;28;19913;-70
2021/11/22 01:46:46;;;;;;;;;;;;;;;4.54;92.30;100391.56;4985161;28;19922;-70
2021/11/22 01:49:12;;;;;;;;;;;;;;;4.51;92.09;100393.94;4973900;28;20308;-71
2021/11/22 01:51:37;;;;;;;;;;;;;;;4.53;91.71;100397.47;4974172;28;19914;-69
2021/11/22 01:54:02;;;;;;;;;;;;;;;4.50;91.30;100393.06;4974369;28;19921;-68
2021/11/22 01:56:28;;;;;;;;;;;;;;;4.49;91.20;100390.41;4974207;28;19914;-69
2021/11/22 01:58:53;;;;;;;;;;;;;;;4.44;91.06;100389.28;4974334;28;19940;-69
2021/11/22 02:01:19;;;;;;;;;;;;;;;4.35;91.54;100394.72;4974118;28;19914;-73
2021/11/22 02:03:45;;;;;;;;;;;;;;;4.12;92.88;100390.75;4973559;28;20395;-72
2021/11/22 02:06:11;;;;;;;;;;;;;;;3.99;93.05;100389.97;4974074;28;19957;-70
2021/11/22 02:08:36;;;;;;;;;;;;;;;3.96;93.89;100387.25;4973870;28;20060;-71
2021/11/22 02:11:02;;;;;;;;;;;;;;;3.98;93.23;100388.22;4974065;28;19913;-71
2021/11/22 02:13:28;;;;;;;;;;;;;;;3.92;93.59;100386.97;4979921;28;19917;-70
2021/11/22 02:15:54;;;;;;;;;;;;;;;3.80;94.00;100387.06;4983750;28;19923;-71
2021/11/22 02:18:19;;;;;;;;;;;;;;;3.66;94.38;100384.50;4992471;28;19921;-72
2021/11/22 02:20:46;;;;;;;;;;;;;;;3.62;94.72;100387.66;4992784;28;19964;-70
2021/11/22 02:23:12;;;;;;;;;;;;;;;3.52;94.80;100390.44;4992966;28;19913;-67
2021/11/22 02:25:38;;;;;;;;;;;;;;;3.16;95.73;100388.13;4992645;28;19988;-71
2021/11/22 02:28:04;;;;;;;;;;;;;;;2.95;96.68;100395.25;4992686;28;20008;-69
2021/11/22 02:30:31;;;;;;;;;;;;;;;2.78;97.74;100391.63;4992981;28;19914;-70
2021/11/22 02:33:00;;;;;;;;;;;;;;;2.90;97.90;100396.63;4992333;28;19914;-69
2021/11/22 02:35:27;;;;;;;;;;;;;;;2.92;97.67;100389.97;4992340;28;20005;-70
2021/11/22 02:37:52;;;;;;;;;;;;;;;2.88;98.17;100396.53;4992429;28;19921;-72
2021/11/22 02:40:17;;;;;;;;;;;;;;;3.00;97.78;100399.00;4992557;28;19913;-70
2021/11/22 02:42:44;;;;;;;;;;;;;;;3.07;97.61;100395.19;4992342;28;19917;-69
2021/11/22 02:45:11;;;;;;;;;;;;;;;3.24;96.90;100397.19;4992432;28;20009;-73
2021/11/22 02:47:37;;;;;;;;;;;;;;;3.33;96.64;100389.25;4992803;28;19964;-74
2021/11/22 02:50:04;;;;;;;;;;;;;;;3.43;96.24;100380.50;4992211;28;19918;-70
2021/11/22 02:52:29;;;;;;;;;;;;;;;3.45;96.36;100380.59;4989412;28;19921;-69
2021/11/22 02:54:54;;;;;;;;;;;;;;;3.30;96.37;100373.75;4981610;28;19914;-70
2021/11/22 02:57:20;;;;;;;;;;;;;;;3.27;97.10;100378.63;4979405;28;19936;-73
2021/11/22 02:59:45;;;;;;;;;;;;;;;3.34;97.53;100370.59;4992337;28;19996;-71
2021/11/22 03:02:12;;;;;;;;;;;;;;;3.46;97.32;100375.59;4990938;28;19917;-72
2021/11/22 03:04:38;;;;;;;;;;;;;;;3.56;96.91;100370.31;4991189;28;19913;-70
2021/11/22 03:07:04;;;;;;;;;;;;;;;3.65;95.86;100372.56;4992306;28;19921;-70
2021/11/22 03:09:29;;;;;;;;;;;;;;;3.75;95.56;100378.22;4974285;28;19921;-68
2021/11/22 03:11:55;;;;;;;;;;;;;;;3.75;95.09;100368.91;4996181;28;19920;-70
2021/11/22 03:14:21;;;;;;;;;;;;;;;3.76;94.28;100375.75;4996042;28;19945;-72
2021/11/22 03:16:46;;;;;;;;;;;;;;;3.68;93.30;100380.41;4996020;28;20371;-68
2021/11/22 03:19:12;;;;;;;;;;;;;;;3.38;93.10;100381.91;4995709;28;19972;-70
2021/11/22 03:21:37;;;;;;;;;;;;;;;3.14;94.07;100392.28;4995667;28;20406;-73
2021/11/22 03:24:02;;;;;;;;;;;;;;;3.07;94.15;100388.41;4996020;28;20001;-70
2021/11/22 03:26:28;;;;;;;;;;;;;;;2.75;95.16;100399.94;4995715;28;20015;-69
2021/11/22 03:28:53;;;;;;;;;;;;;;;2.45;96.99;100411.47;4995585;28;19914;-70
2021/11/22 03:31:18;;;;;;;;;;;;;;;2.52;97.58;100406.03;4994272;28;19914;-75
2021/11/22 03:33:46;;;;;;;;;;;;;;;2.66;97.42;100406.94;4995437;28;19914;-70
2021/11/22 03:36:12;;;;;;;;;;;;;;;2.78;97.34;100406.00;4995789;28;19921;-72
2021/11/22 03:38:37;;;;;;;;;;;;;;;2.78;97.14;100406.91;4995600;28;19914;-70
2021/11/22 03:41:09;;;;;;;;;;;;;;;2.79;97.22;100403.59;4995329;28;20441;-72
2021/11/22 03:43:55;;;;;;;;;;;;;;;2.09;96.77;100260.44;4995419;28;20465;-73
2021/11/22 03:46:20;;;;;;;;;;;;;;;2.97;96.78;100409.00;4995259;28;19939;-70
2021/11/22 03:48:46;;;;;;;;;;;;;;;3.02;96.48;100411.88;4995500;28;20303;-71
2021/11/22 03:51:12;;;;;;;;;;;;;;;3.05;96.07;100422.25;4995380;28;19921;-70
2021/11/22 03:53:38;;;;;;;;;;;;;;;3.12;95.67;100414.25;4995145;28;19913;-72
2021/11/22 03:56:03;;;;;;;;;;;;;;;3.16;95.58;100426.41;4995174;28;20004;-70
2021/11/22 03:58:29;;;;;;;;;;;;;;;3.19;95.92;100425.72;4995246;28;20005;-70
2021/11/22 04:00:54;;;;;;;;;;;;;;;3.20;95.40;100418.19;4993760;28;19964;-72
2021/11/22 04:03:19;;;;;;;;;;;;;;;3.19;95.14;100421.53;4974016;28;19940;-71
2021/11/22 04:05:45;;;;;;;;;;;;;;;3.25;95.05;100431.22;4975968;28;19965;-67
2021/11/22 04:08:10;;;;;;;;;;;;;;;3.09;95.37;100424.25;4975884;28;19918;-76
2021/11/22 04:10:36;;;;;;;;;;;;;;;2.96;96.33;100419.13;4975694;28;20360;-70
2021/11/22 04:13:02;;;;;;;;;;;;;;;3.04;96.30;100421.41;4975823;28;20460;-72
2021/11/22 04:15:27;;;;;;;;;;;;;;;3.13;96.25;100420.22;4975641;28;20387;-69
2021/11/22 04:17:52;;;;;;;;;;;;;;;3.16;95.87;100415.31;4975618;28;19952;-70
2021/11/22 04:20:18;;;;;;;;;;;;;;;3.15;95.62;100418.66;4975865;28;19955;-70
2021/11/22 04:22:43;;;;;;;;;;;;;;;3.20;95.54;100419.84;4994395;28;19920;-70
2021/11/22 04:25:09;;;;;;;;;;;;;;;3.20;95.32;100422.38;4994893;28;19909;-76
2021/11/22 04:27:35;;;;;;;;;;;;;;;3.21;95.53;100426.72;4993803;28;19928;-71
2021/11/22 04:30:00;;;;;;;;;;;;;;;3.24;95.06;100429.47;4994215;28;19914;-69
2021/11/22 04:32:26;;;;;;;;;;;;;;;3.26;95.17;100435.56;4993483;28;19918;-70
2021/11/22 04:34:51;;;;;;;;;;;;;;;3.28;94.62;100433.09;5001817;28;20002;-70
2021/11/22 04:37:16;;;;;;;;;;;;;;;3.24;95.08;100439.69;5013608;28;20414;-71
2021/11/22 04:39:42;;;;;;;;;;;;;;;3.15;95.13;100439.94;5013343;28;19963;-70
2021/11/22 04:42:07;;;;;;;;;;;;;;;3.20;95.01;100437.69;5012819;28;19972;-71
2021/11/22 04:44:32;;;;;;;;;;;;;;;2.89;95.42;100445.84;5013152;28;20403;-73
2021/11/22 04:46:58;;;;;;;;;;;;;;;2.57;97.69;100448.00;5013452;28;20498;-72
2021/11/22 04:49:23;;;;;;;;;;;;;;;2.39;98.26;100444.19;5008905;28;19925;-71
2021/11/22 04:51:48;;;;;;;;;;;;;;;2.29;98.92;100442.66;4998516;28;19968;-71
2021/11/22 04:54:14;;;;;;;;;;;;;;;2.20;100.00;100447.13;5009710;28;19913;-71
2021/11/22 04:56:39;;;;;;;;;;;;;;;2.25;99.43;100440.69;5006859;28;19940;-74
2021/11/22 04:59:04;;;;;;;;;;;;;;;2.18;99.72;100443.56;5009421;28;19969;-72
2021/11/22 05:01:29;;;;;;;;;;;;;;;1.90;100.00;100449.25;5012897;28;19913;-72
2021/11/22 05:03:55;;;;;;;;;;;;;;;1.78;100.00;100449.25;5013036;28;19913;-73
2021/11/22 05:06:20;;;;;;;;;;;;;;;1.71;100.00;100447.06;5013065;28;19914;-72
2021/11/22 05:08:46;;;;;;;;;;;;;;;1.68;100.00;100451.94;5013059;28;20423;-73
2021/11/22 05:11:11;;;;;;;;;;;;;;;1.64;100.00;100453.38;5012692;28;19921;-72
2021/11/22 05:13:36;;;;;;;;;;;;;;;1.59;100.00;100459.78;5011452;28;19917;-72
2021/11/22 05:16:02;;;;;;;;;;;;;;;1.60;100.00;100459.88;5001512;28;20395;-71
2021/11/22 05:18:27;;;;;;;;;;;;;;;1.65;100.00;100464.44;5000313;28;20372;-73
2021/11/22 05:20:52;;;;;;;;;;;;;;;1.45;100.00;100458.78;5002244;28;19956;-72
2021/11/22 05:23:18;;;;;;;;;;;;;;;1.42;100.00;100461.09;5006008;28;20003;-74
2021/11/22 05:25:43;;;;;;;;;;;;;;;1.36;100.00;100459.00;4994335;28;19918;-71
2021/11/22 05:28:09;;;;;;;;;;;;;;;1.61;100.00;100465.88;4988174;28;20365;-72
2021/11/22 05:30:35;;;;;;;;;;;;;;;1.88;100.00;100468.63;5010945;28;19914;-72
2021/11/22 05:33:01;;;;;;;;;;;;;;;2.03;100.00;100466.28;5012203;28;19960;-75
2021/11/22 05:35:27;;;;;;;;;;;;;;;2.01;100.00;100475.50;4992288;28;19972;-72
2021/11/22 05:37:53;;;;;;;;;;;;;;;1.91;100.00;100481.59;4993720;28;19910;-71
2021/11/22 05:40:18;;;;;;;;;;;;;;;1.53;100.00;100488.19;4993174;28;20284;-73
2021/11/22 05:42:44;;;;;;;;;;;;;;;1.65;100.00;100493.31;4980665;28;19949;-72
2021/11/22 05:45:09;;;;;;;;;;;;;;;1.92;100.00;100488.47;4978922;28;19906;-71
2021/11/22 05:47:37;;;;;;;;;;;;;;;2.10;100.00;100492.28;4992481;28;19921;-71
2021/11/22 05:50:05;;;;;;;;;;;;;;;2.18;99.90;100491.97;4993684;28;19910;-72
2021/11/22 05:52:31;;;;;;;;;;;;;;;2.31;99.99;100484.41;4992366;28;19921;-74
2021/11/22 05:54:58;;;;;;;;;;;;;;;2.42;99.03;100488.59;4993248;28;19909;-72
2021/11/22 05:57:24;;;;;;;;;;;;;;;2.09;99.77;100498.19;4992556;28;19921;-72
2021/11/22 05:59:50;;;;;;;;;;;;;;;1.84;100.00;100510.78;4993301;28;19913;-71
2021/11/22 06:02:15;;;;;;;;;;;;;;;1.71;100.00;100508.16;4993394;28;19961;-73
2021/11/22 06:04:41;;;;;;;;;;;;;;;1.72;100.00;100507.34;4993482;28;19949;-74
2021/11/22 06:07:07;;;;;;;;;;;;;;;1.82;100.00;100512.38;4993147;28;19914;-74
2021/11/22 06:09:32;;;;;;;;;;;;;;;1.80;100.00;100511.34;4988625;28;19914;-70
2021/11/22 06:11:57;;;;;;;;;;;;;;;1.95;100.00;100514.13;4990994;28;19914;-73
2021/11/22 06:14:23;;;;;;;;;;;;;;;2.03;100.00;100507.94;4993241;28;19936;-73
2021/11/22 06:16:48;;;;;;;;;;;;;;;2.23;100.00;100503.34;4993209;28;20306;-73
2021/11/22 06:19:14;;;;;;;;;;;;;;;2.42;100.00;100514.06;4989973;28;19921;-72
2021/11/22 06:21:39;;;;;;;;;;;;;;;2.42;100.00;100513.19;4983654;28;19952;-71
2021/11/22 06:24:05;;;;;;;;;;;;;;;2.56;100.00;100514.16;4983517;28;20406;-74
2021/11/22 06:26:31;;;;;;;;;;;;;;;2.62;100.00;100506.94;4982786;28;19917;-73
2021/11/22 06:28:56;;;;;;;;;;;;;;;2.68;100.00;100509.91;4982128;28;19921;-73
2021/11/22 06:31:22;;;;;;;;;;;;;;;2.84;100.00;100511.84;4983823;28;19914;-72
2021/11/22 06:33:47;;;;;;;;;;;;;;;2.88;100.00;100516.38;4982385;28;19918;-72
2021/11/22 06:36:12;;;;;;;;;;;;;;;2.97;100.00;100515.25;4977265;28;20287;-73
2021/11/22 06:38:38;;;;;;;;;;;;;;;2.99;100.00;100517.13;4973047;28;19971;-72
2021/11/22 06:41:03;;;;;;;;;;;;;;;2.97;100.00;100515.25;4973396;28;19914;-73
2021/11/22 06:43:28;;;;;;;;;;;;;;;2.92;100.00;100518.34;4990744;28;19964;-73
2021/11/22 06:45:54;;;;;;;;;;;;;;;3.03;100.00;100519.09;4990545;28;19921;-73
2021/11/22 06:48:19;;;;;;;;;;;;;;;3.23;100.00;100515.31;4992796;28;19921;-73
2021/11/22 06:50:44;;;;;;;;;;;;;;;3.20;100.00;100525.34;4992478;28;19917;-74
2021/11/22 06:53:10;;;;;;;;;;;;;;;3.09;100.00;100521.19;4992488;28;19921;-73
2021/11/22 06:55:35;;;;;;;;;;;;;;;3.03;100.00;100523.31;4992666;28;19918;-73
2021/11/22 06:58:01;;;;;;;;;;;;;;;3.10;100.00;100533.13;4992590;28;19936;-72
2021/11/22 07:00:26;;;;;;;;;;;;;;;3.23;100.00;100532.31;4992541;28;19914;-72
2021/11/22 07:02:52;;;;;;;;;;;;;;;3.44;100.00;100531.97;4992516;28;20320;-73
2021/11/22 07:05:21;;;;;;;;;;;;;;;3.73;100.00;100532.22;4991482;28;19932;-73
2021/11/22 07:07:47;;;;;;;;;;;;;;;3.84;100.00;100532.06;4991041;28;19920;-73
2021/11/22 07:10:13;;;;;;;;;;;;;;;3.66;100.00;100532.59;4992180;28;19996;-72
2021/11/22 07:12:38;;;;;;;;;;;;;;;3.59;100.00;100535.56;4992361;28;19913;-73
2021/11/22 07:15:04;;;;;;;;;;;;;;;3.53;100.00;100535.16;4992394;28;19964;-73
2021/11/22 07:17:31;;;;;;;;;;;;;;;3.68;100.00;100535.28;4992285;28;19914;-72
2021/11/22 07:19:56;;;;;;;;;;;;;;;4.00;100.00;100532.25;4992755;28;19914;-73
2021/11/22 07:22:22;;;;;;;;;;;;;;;4.15;100.00;100540.00;4992072;28;20312;-72
2021/11/22 07:24:47;;;;;;;;;;;;;;;4.34;100.00;100538.63;4992582;28;19925;-73
2021/11/22 07:27:14;;;;;;;;;;;;;;;4.55;100.00;100533.97;4992274;28;19913;-73
2021/11/22 07:29:41;;;;;;;;;;;;;;;4.74;100.00;100532.56;4992363;28;19910;-71
2021/11/22 07:32:06;;;;;;;;;;;;;;;4.79;100.00;100534.59;4992099;28;19933;-72
2021/11/22 07:34:32;;;;;;;;;;;;;;;4.89;100.00;100536.03;4991227;28;20294;-72
2021/11/22 07:36:57;;;;;;;;;;;;;;;5.09;100.00;100533.81;4988358;28;20364;-71
2021/11/22 07:39:23;;;;;;;;;;;;;;;5.28;100.00;100534.09;4988593;28;20444;-71
2021/11/22 07:41:51;;;;;;;;;;;;;;;5.19;100.00;100538.66;4990507;28;19914;-73
2021/11/22 07:44:16;;;;;;;;;;;;;;;5.30;100.00;100529.94;4992057;28;19914;-74
2021/11/22 07:46:42;;;;;;;;;;;;;;;5.41;100.00;100530.59;4992324;28;20411;-73
2021/11/22 07:49:07;;;;;;;;;;;;;;;5.55;100.00;100533.06;4991061;28;19965;-72
2021/11/22 07:51:33;;;;;;;;;;;;;;;5.71;100.00;100527.13;4991904;28;19920;-73
2021/11/22 07:53:58;;;;;;;;;;;;;;;5.83;100.00;100528.75;4992154;28;19918;-73
2021/11/22 07:56:23;;;;;;;;;;;;;;;5.94;100.00;100523.34;4993988;28;20387;-74
2021/11/22 07:58:48;;;;;;;;;;;;;;;6.02;100.00;100518.66;4996030;28;20359;-72
2021/11/22 08:01:14;;;;;;;;;;;;;;;6.22;100.00;100520.66;4995694;28;19966;-71
2021/11/22 08:03:39;;;;;;;;;;;;;;;6.18;100.00;100518.75;4994906;28;19918;-73
2021/11/22 08:06:05;;;;;;;;;;;;;;;6.36;100.00;100510.28;4995612;28;19949;-72
2021/11/22 08:08:32;;;;;;;;;;;;;;;6.54;100.00;100510.38;4995338;28;21064;-73
2021/11/22 08:11:07;;;;;;;;;;;;;;;6.41;100.00;100512.28;4995698;28;20335;-72
2021/11/22 08:13:33;;;;;;;;;;;;;;;6.48;100.00;100504.13;4993346;28;20376;-73
2021/11/22 08:16:04;;;;;;;;;;;;;;;6.70;100.00;100506.97;4992626;28;19964;-73
2021/11/22 08:18:29;;;;;;;;;;;;;;;6.84;100.00;100508.59;4994901;28;20008;-74
2021/11/22 08:20:55;;;;;;;;;;;;;;;6.94;100.00;100510.81;4994914;28;20372;-73
2021/11/22 08:23:21;;;;;;;;;;;;;;;7.03;100.00;100506.94;4995512;28;20411;-73
2021/11/22 08:25:46;;;;;;;;;;;;;;;7.24;100.00;100517.44;4995383;28;19910;-74
2021/11/22 08:28:12;;;;;;;;;;;;;;;7.31;100.00;100519.53;4995201;28;19913;-73
2021/11/22 08:30:37;;;;;;;;;;;;;;;7.41;100.00;100523.44;4995308;28;20291;-74
2021/11/22 08:33:05;;;;;;;;;;;;;;;7.52;100.00;100517.16;4995231;28;19993;-74
2021/11/22 08:35:33;;;;;;;;;;;;;;;7.48;100.00;100509.22;4994766;28;19913;-74
2021/11/22 08:38:00;;;;;;;;;;;;;;;7.66;100.00;100516.97;4995186;28;19921;-73
2021/11/22 08:40:25;;;;;;;;;;;;;;;7.71;100.00;100524.13;4976663;28;19964;-73
2021/11/22 08:42:52;;;;;;;;;;;;;;;7.84;100.00;100512.75;4995177;28;19913;-74
2021/11/22 08:45:17;;;;;;;;;;;;;;;7.95;100.00;100510.69;4995087;28;19910;-72
2021/11/22 08:47:43;;;;;;;;;;;;;;;8.18;100.00;100519.50;4994836;28;20344;-72
2021/11/22 08:50:09;;;;;;;;;;;;;;;8.09;100.00;100512.22;4994675;28;20378;-73
2021/11/22 08:52:34;;;;;;;;;;;;;;;8.25;100.00;100510.41;4994931;28;19913;-73
2021/11/22 08:55:00;;;;;;;;;;;;;;;8.49;100.00;100513.25;4992536;28;19909;-72
2021/11/22 08:57:25;;;;;;;;;;;;;;;8.70;100.00;100505.63;4994541;28;20004;-72
2021/11/22 08:59:51;;;;;;;;;;;;;;;8.85;100.00;100504.56;4994519;28;20368;-74
2021/11/22 09:02:21;;;;;;;;;;;;;;;8.87;100.00;100500.34;4994279;28;20008;-72
2021/11/22 09:04:46;;;;;;;;;;;;;;;9.07;100.00;100496.94;4994456;28;19925;-73
2021/11/22 09:07:11;;;;;;;;;;;;;;;9.19;100.00;100500.88;4993633;28;19914;-72
2021/11/22 09:09:36;;;;;;;;;;;;;;;9.28;100.00;100501.25;4994290;28;20277;-73
2021/11/22 09:12:02;;;;;;;;;;;;;;;9.33;100.00;100496.28;4994201;28;19913;-73
2021/11/22 09:14:27;;;;;;;;;;;;;;;9.53;100.00;100491.97;4994139;28;19918;-73
2021/11/22 09:16:52;;;;;;;;;;;;;;;9.69;100.00;100485.75;4994108;28;19913;-72
2021/11/22 09:19:18;;;;;;;;;;;;;;;9.84;99.89;100483.81;4994393;28;19922;-72
2021/11/22 09:21:43;;;;;;;;;;;;;;;10.05;98.37;100472.56;4994272;28;19921;-72
2021/11/22 09:24:09;;;;;;;;;;;;;;;10.20;96.95;100477.44;4994192;28;19914;-73
2021/11/22 09:26:34;;;;;;;;;;;;;;;10.38;96.15;100471.25;4994300;28;19971;-73
2021/11/22 09:29:00;;;;;;;;;;;;;;;10.59;95.10;100476.34;4994063;28;19988;-73
2021/11/22 09:31:25;;;;;;;;;;;;;;;10.69;94.03;100468.09;5011081;28;19979;-73
2021/11/22 09:33:53;;;;;;;;;;;;;;;10.86;93.67;100473.88;5011128;28;20371;-72
2021/11/22 09:36:19;;;;;;;;;;;;;;;10.79;94.09;100472.81;5011240;28;19964;-73
2021/11/22 09:38:44;;;;;;;;;;;;;;;10.80;94.40;100471.97;5011196;28;19918;-73
2021/11/22 09:41:10;;;;;;;;;;;;;;;11.04;94.74;100470.19;5010931;28;19951;-73
2021/11/22 09:43:35;;;;;;;;;;;;;;;11.16;93.81;100468.94;5010985;28;19913;-73
2021/11/22 09:46:01;;;;;;;;;;;;;;;11.23;93.00;100463.97;5010827;28;19920;-73
2021/11/22 09:48:27;;;;;;;;;;;;;;;11.40;92.35;100455.09;4994383;28;19966;-73
2021/11/22 09:50:52;;;;;;;;;;;;;;;11.52;91.92;100451.16;5010981;28;19933;-73
2021/11/22 09:53:18;;;;;;;;;;;;;;;11.60;91.08;100452.25;5011147;28;20330;-72
2021/11/22 09:55:43;;;;;;;;;;;;;;;11.75;90.74;100439.84;5010800;28;20059;-72
2021/11/22 09:58:10;;;;;;;;;;;;;;;11.72;91.04;100438.84;4994303;28;19913;-72
2021/11/22 10:00:37;;;;;;;;;;;;;;;11.91;90.08;100440.28;4994393;28;19918;-71
2021/11/22 10:03:02;;;;;;;;;;;;;;;11.96;90.17;100447.41;4992503;28;19995;-76
2021/11/22 10:05:33;;;;;;;;;;;;;;;12.11;89.85;100439.25;4993429;28;19969;-72
2021/11/22 10:08:10;;;;;;;;;;;;;;;12.30;88.38;100437.19;4993377;28;20002;-75
2021/11/22 10:10:56;;;;;;;;;;;;;;;12.26;88.98;100440.50;4993455;28;20367;-72
2021/11/22 10:13:29;;;;;;;;;;;;;;;12.39;89.29;100434.00;4992871;28;20000;-73
2021/11/22 10:15:56;;;;;;;;;;;;;;;12.58;87.94;100435.41;4993041;28;19964;-75
2021/11/22 10:18:23;;;;;;;;;;;;;;;12.61;87.85;100430.28;4992711;28;20444;-74
2021/11/22 10:20:50;;;;;;;;;;;;;;;12.55;88.09;100420.66;4992917;28;19913;-74
2021/11/22 10:23:19;;;;;;;;;;;;;;;12.72;87.04;100428.91;4993033;28;19920;-72
2021/11/22 10:25:45;;;;;;;;;;;;;;;12.86;86.62;100416.31;4993047;28;20445;-71
2021/11/22 10:28:15;;;;;;;;;;;;;;;12.88;86.67;100417.22;4992961;28;20008;-72
2021/11/22 10:30:52;;;;;;;;;;;;;;;13.04;85.15;100408.13;4993376;28;20364;-74
2021/11/22 10:33:20;;;;;;;;;;;;;;;13.14;84.20;100404.06;4992848;28;19936;-74
2021/11/22 10:35:46;;;;;;;;;;;;;;;13.22;85.57;100404.25;4992976;28;19921;-75
2021/11/22 10:38:19;;;;;;;;;;;;;;;13.30;84.69;100394.97;4992789;28;19921;-73
2021/11/22 10:40:47;;;;;;;;;;;;;;;13.43;83.62;100391.88;4992883;28;19918;-72
2021/11/22 10:43:12;;;;;;;;;;;;;;;13.56;83.44;100385.25;4992695;28;20376;-72
2021/11/22 10:45:45;;;;;;;;;;;;;;;13.61;83.59;100372.38;4991665;28;19917;-73
2021/11/22 10:48:21;;;;;;;;;;;;;;;13.56;83.41;100377.47;4992533;28;19914;-73
2021/11/22 10:50:54;;;;;;;;;;;;;;;13.57;83.06;100365.34;4992358;28;20492;-73
2021/11/22 10:53:33;;;;;;;;;;;;;;;13.67;83.37;100376.81;4992871;28;19972;-72
2021/11/22 10:56:00;;;;;;;;;;;;;;;13.77;82.91;100372.72;4992708;28;19914;-72
2021/11/22 10:58:45;;;;;;;;;;;;;;;13.80;82.06;100367.63;4992420;28;19920;-72
2021/11/22 11:01:29;;;;;;;;;;;;;;;13.86;81.40;100360.84;5023014;28;20305;-74
2021/11/22 11:03:57;;;;;;;;;;;;;;;13.93;82.95;100360.97;4992543;28;20403;-73
2021/11/22 11:06:41;;;;;;;;;;;;;;;13.93;81.83;100359.22;4992615;28;19917;-72
2021/11/22 11:09:08;;;;;;;;;;;;;;;14.04;81.31;100356.88;4992495;28;20012;-73
2021/11/22 11:11:33;;;;;;;;;;;;;;;14.13;80.87;100354.47;4992262;28;19910;-74
2021/11/22 11:14:02;;;;;;;;;;;;;;;14.03;81.07;100356.00;4992560;28;19918;-73
2021/11/22 11:16:28;;;;;;;;;;;;;;;14.10;81.55;100359.59;4992603;28;19913;-73
2021/11/22 11:19:13;;;;;;;;;;;;;;;14.02;81.51;100356.00;4992271;28;20060;-73
2021/11/22 11:21:40;;;;;;;;;;;;;;;14.14;81.44;100351.03;4991893;28;19913;-72
2021/11/22 11:24:06;;;;;;;;;;;;;;;14.29;80.28;100355.66;4991951;28;19945;-74
2021/11/22 11:26:32;;;;;;;;;;;;;;;14.31;79.55;100342.72;4992375;28;19913;-72
2021/11/22 11:28:58;;;;;;;;;;;;;;;14.28;80.39;100340.94;4992332;28;19920;-73
2021/11/22 11:31:23;;;;;;;;;;;;;;;14.42;80.83;100340.31;4994482;28;19921;-73
2021/11/22 11:33:49;;;;;;;;;;;;;;;14.46;80.88;100332.59;4996324;28;19949;-73
2021/11/22 11:36:39;;;;;;;;;;;;;;;14.47;80.15;100333.50;4996454;28;20005;-70
2021/11/22 11:39:23;;;;;;;;;;;;;;;14.48;79.73;100338.72;4995997;28;19964;-72
2021/11/22 11:41:54;;;;;;;;;;;;;;;14.47;79.83;100329.16;4994878;28;19939;-72
2021/11/22 11:44:32;;;;;;;;;;;;;;;14.39;79.87;100326.44;4996018;28;20000;-72
2021/11/22 11:47:03;;;;;;;;;;;;;;;14.38;79.97;100328.97;4995744;28;20033;-74
2021/11/22 11:49:32;;;;;;;;;;;;;;;14.45;80.33;100341.25;4992471;28;19917;-74
2021/11/22 11:51:58;;;;;;;;;;;;;;;14.52;79.70;100332.72;4991567;28;19995;-74
2021/11/22 11:54:24;;;;;;;;;;;;;;;14.45;80.09;100325.66;4995820;28;20357;-74
2021/11/22 11:56:51;;;;;;;;;;;;;;;14.49;80.01;100324.00;4996014;28;19914;-74
2021/11/22 11:59:38;;;;;;;;;;;;;;;14.34;80.58;100322.88;4994273;28;19921;-73
2021/11/22 12:02:03;;;;;;;;;;;;;;;14.30;80.86;100321.03;4994742;28;19913;-71
2021/11/22 12:04:58;;;;;;;;;;;;;;;14.33;80.75;100315.03;4993968;28;19990;-71
2021/11/22 12:07:23;;;;;;;;;;;;;;;14.28;80.99;100327.06;4967039;28;20016;-73
2021/11/22 12:10:00;;;;;;;;;;;;;;;14.22;81.34;100318.31;4971171;28;20004;-73
2021/11/22 12:12:33;;;;;;;;;;;;;;;14.20;82.12;100321.72;4957361;28;19914;-71
2021/11/22 12:15:03;;;;;;;;;;;;;;;14.22;81.87;100320.03;4973685;28;19914;-73
2021/11/22 12:17:34;;;;;;;;;;;;;;;14.23;81.75;100314.88;4971676;28;20481;-71
2021/11/22 12:20:05;;;;;;;;;;;;;;;14.29;81.56;100306.31;4973151;28;19914;-72
2021/11/22 12:22:34;;;;;;;;;;;;;;;14.31;81.17;100309.81;4973402;28;19914;-72
2021/11/22 12:25:00;;;;;;;;;;;;;;;14.36;81.49;100315.09;4973695;28;19918;-71
2021/11/22 12:27:28;;;;;;;;;;;;;;;14.29;81.22;100316.69;4973413;28;19921;-73
2021/11/22 12:29:54;;;;;;;;;;;;;;;14.26;81.68;100316.66;4973483;28;19918;-71
2021/11/22 12:32:26;;;;;;;;;;;;;;;14.23;82.29;100324.38;4972163;28;20026;-73
2021/11/22 12:34:59;;;;;;;;;;;;;;;14.10;82.92;100323.25;4973232;28;19914;-72
2021/11/22 12:37:26;;;;;;;;;;;;;;;14.06;82.82;100330.09;4971757;28;19914;-75
2021/11/22 12:39:52;;;;;;;;;;;;;;;14.10;82.72;100319.78;4973114;28;20384;-73
2021/11/22 12:42:20;;;;;;;;;;;;;;;14.09;82.92;100324.09;4923567;28;19921;-69